createdAt,value
2022-08-17T00:00:49.273Z,6.83
2022-08-17T00:03:41.754Z,6.00
2022-08-17T00:06:29.781Z,6.10
2022-08-17T00:09:18.987Z,7.03
2022-08-17T00:12:40.695Z,7.20
2022-08-17T00:15:14.228Z,8.17
2022-08-17T00:18:00.632Z,6.57
2022-08-17T00:20:46.805Z,6.60
2022-08-17T00:23:33.232Z,6.40
2022-08-17T00:26:43.442Z,7.20
2022-08-17T00:29:29.212Z,5.80
2022-08-17T00:33:14.306Z,6.40
2022-08-17T00:35:23.698Z,6.50
2022-08-17T00:38:10.359Z,6.50
2022-08-17T00:40:59.639Z,6.23
2022-08-17T00:43:55.791Z,6.50
2022-08-17T00:46:44.321Z,6.33
2022-08-17T00:49:31.285Z,6.27
2022-08-17T00:52:23.025Z,6.57
2022-08-17T00:55:10.246Z,7.40
2022-08-17T00:58:00.242Z,6.07
2022-08-17T01:00:47.946Z,6.40
2022-08-17T01:03:36.463Z,7.07
2022-08-17T01:06:24.174Z,6.30
2022-08-17T01:09:10.586Z,6.30
2022-08-17T01:11:57.256Z,6.80
2022-08-17T01:14:44.040Z,6.70
2022-08-17T01:17:30.635Z,6.67
2022-08-17T01:20:17.391Z,7.30
2022-08-17T01:23:03.948Z,6.57
2022-08-17T01:25:52.910Z,6.93
2022-08-17T01:28:54.003Z,6.60
2022-08-17T01:31:49.194Z,6.80
2022-08-17T01:34:42.650Z,7.63
2022-08-17T01:37:35.248Z,6.63
2022-08-17T01:40:35.079Z,6.37
2022-08-17T01:43:27.975Z,5.73
2022-08-17T01:46:21.016Z,6.47
2022-08-17T01:49:12.876Z,6.23
2022-08-17T01:52:06.330Z,6.67
2022-08-17T01:54:53.399Z,6.40
2022-08-17T01:57:39.662Z,6.33
2022-08-17T02:00:27.577Z,6.97
2022-08-17T02:03:35.793Z,6.10
2022-08-17T02:06:27.997Z,7.03
2022-08-17T02:09:16.531Z,6.50
2022-08-17T02:12:38.556Z,6.63
2022-08-17T02:15:12.545Z,6.40
2022-08-17T02:17:59.105Z,6.10
2022-08-17T02:20:45.348Z,6.80
2022-08-17T02:23:35.596Z,7.20
2022-08-17T02:26:24.236Z,7.03
2022-08-17T02:29:15.107Z,6.33
2022-08-17T02:32:01.877Z,6.47
2022-08-17T02:34:48.443Z,6.83
2022-08-17T02:37:35.603Z,6.23
2022-08-17T02:40:36.031Z,6.87
2022-08-17T02:43:23.239Z,6.37
2022-08-17T02:46:09.575Z,6.50
2022-08-17T02:48:56.038Z,6.63
2022-08-17T02:51:42.355Z,6.37
2022-08-17T02:54:39.865Z,6.63
2022-08-17T02:57:28.470Z,7.43
2022-08-17T03:00:22.589Z,6.53
2022-08-17T03:03:10.889Z,6.27
2022-08-17T03:05:57.821Z,6.50
2022-08-17T03:08:44.124Z,6.00
2022-08-17T03:11:30.423Z,6.63
2022-08-17T03:14:17.037Z,6.87
2022-08-17T03:17:04.693Z,7.13
2022-08-17T03:19:50.947Z,7.10
2022-08-17T03:22:39.647Z,6.33
2022-08-17T03:25:29.810Z,6.77
2022-08-17T03:28:17.073Z,6.50
2022-08-17T03:31:03.888Z,6.60
2022-08-17T03:33:50.159Z,7.00
2022-08-17T03:36:36.616Z,6.40
2022-08-17T03:39:23.121Z,6.27
2022-08-17T03:42:32.527Z,6.90
2022-08-17T03:45:42.790Z,6.30
2022-08-17T03:48:48.375Z,6.00
2022-08-17T03:51:53.262Z,6.17
2022-08-17T03:54:59.162Z,6.43
2022-08-17T03:57:45.871Z,6.53
2022-08-17T04:00:32.354Z,6.80
2022-08-17T04:03:19.038Z,6.33
2022-08-17T04:06:06.254Z,6.97
2022-08-17T04:08:52.567Z,6.73
2022-08-17T04:11:39.461Z,6.70
2022-08-17T04:14:25.667Z,6.70
2022-08-17T04:17:11.863Z,7.23
2022-08-17T04:19:58.416Z,6.97
2022-08-17T04:23:04.471Z,6.70
2022-08-17T04:25:51.347Z,6.83
2022-08-17T04:28:37.846Z,6.77
2022-08-17T04:31:25.993Z,7.10
2022-08-17T04:34:12.748Z,6.83
2022-08-17T04:36:58.899Z,6.67
2022-08-17T04:40:05.246Z,7.27
2022-08-17T04:43:03.333Z,6.70
2022-08-17T04:45:55.864Z,6.40
2022-08-17T04:48:45.185Z,6.40
2022-08-17T04:51:33.718Z,7.03
2022-08-17T04:54:21.599Z,6.87
2022-08-17T04:57:07.878Z,6.47
2022-08-17T04:59:54.218Z,6.00
2022-08-17T05:02:50.993Z,6.83
2022-08-17T05:05:43.067Z,5.60
2022-08-17T05:08:29.766Z,6.57
2022-08-17T05:11:16.169Z,6.37
2022-08-17T05:14:03.474Z,5.90
2022-08-17T05:16:51.065Z,5.70
2022-08-17T05:19:37.654Z,5.50
2022-08-17T05:22:24.184Z,6.03
2022-08-17T05:25:10.313Z,5.53
2022-08-17T05:27:58.108Z,6.07
2022-08-17T05:30:46.038Z,5.30
2022-08-17T05:33:41.497Z,5.63
2022-08-17T05:36:42.397Z,6.00
2022-08-17T05:39:29.157Z,5.23
2022-08-17T05:42:19.262Z,5.43
2022-08-17T05:45:07.015Z,5.47
2022-08-17T05:47:53.389Z,5.63
2022-08-17T05:50:51.032Z,5.33
2022-08-17T05:53:50.761Z,5.97
2022-08-17T05:56:49.257Z,5.53
2022-08-17T05:59:44.528Z,5.13
2022-08-17T06:02:34.067Z,6.13
2022-08-17T06:05:32.880Z,6.97
2022-08-17T06:09:02.149Z,5.60
2022-08-17T06:11:58.832Z,6.00
2022-08-17T06:15:14.783Z,6.03
2022-08-17T06:18:05.416Z,5.70
2022-08-17T06:20:58.906Z,5.33
2022-08-17T06:23:50.616Z,6.03
2022-08-17T06:26:43.185Z,5.60
2022-08-17T06:29:37.526Z,5.13
2022-08-17T06:32:25.039Z,5.23
2022-08-17T06:35:15.190Z,4.93
2022-08-17T06:38:37.423Z,5.00
2022-08-17T06:41:37.986Z,5.23
2022-08-17T06:44:43.526Z,5.40
2022-08-17T06:47:49.755Z,5.67
2022-08-17T06:50:42.876Z,5.80
2022-08-17T06:53:45.469Z,5.57
2022-08-17T06:56:54.294Z,6.07
2022-08-17T06:59:56.394Z,5.50
2022-08-17T07:02:52.657Z,5.97
2022-08-17T07:05:45.039Z,5.30
2022-08-17T07:08:41.001Z,5.47
2022-08-17T07:11:37.618Z,4.60
2022-08-17T07:14:53.118Z,4.67
2022-08-17T07:17:56.850Z,5.03
2022-08-17T07:20:50.861Z,4.37
2022-08-17T07:23:49.684Z,4.20
2022-08-17T07:26:38.840Z,5.03
2022-08-17T07:29:25.402Z,4.47
2022-08-17T07:32:18.242Z,4.40
2022-08-17T07:35:10.804Z,4.80
2022-08-17T07:38:24.707Z,5.50
2022-08-17T07:41:13.002Z,4.60
2022-08-17T07:43:59.241Z,4.90
2022-08-17T07:47:10.711Z,4.43
2022-08-17T07:49:56.907Z,4.77
2022-08-17T07:52:50.658Z,4.40
2022-08-17T07:55:41.443Z,4.72
2022-08-17T07:58:27.970Z,4.85
2022-08-17T08:01:15.458Z,4.57
2022-08-17T08:04:59.334Z,4.20
2022-08-17T08:08:06.007Z,4.30
2022-08-17T08:11:03.027Z,4.53
2022-08-17T08:13:49.824Z,4.60
2022-08-17T08:16:36.714Z,4.20
2022-08-17T08:19:25.965Z,4.05
2022-08-17T08:22:21.942Z,4.05
2022-08-17T08:25:18.472Z,4.10
2022-08-17T08:28:33.922Z,4.25
2022-08-17T08:31:57.839Z,4.70
2022-08-17T08:35:08.212Z,4.53
2022-08-17T08:38:13.335Z,4.35
2022-08-17T08:41:21.234Z,4.40
2022-08-17T08:44:19.592Z,4.20
2022-08-17T08:47:35.454Z,4.45
2022-08-17T08:50:38.171Z,4.60
2022-08-17T08:53:49.557Z,4.32
2022-08-17T08:57:29.083Z,4.25
2022-08-17T09:00:19.068Z,4.45
2022-08-17T09:03:51.864Z,4.63
2022-08-17T09:06:56.863Z,4.40
2022-08-17T09:10:10.243Z,4.13
2022-08-17T09:13:19.583Z,3.97
2022-08-17T09:16:20.138Z,4.73
2022-08-17T09:19:30.027Z,4.50
2022-08-17T09:22:25.544Z,4.33
2022-08-17T09:26:07.803Z,4.57
2022-08-17T09:29:01.400Z,4.80
2022-08-17T09:31:55.211Z,4.72
2022-08-17T09:34:49.427Z,4.73
2022-08-17T09:37:51.381Z,4.90
2022-08-17T09:41:10.193Z,4.53
2022-08-17T09:43:56.376Z,5.27
2022-08-17T09:46:51.003Z,4.53
2022-08-17T09:49:37.508Z,5.70
2022-08-17T09:52:26.975Z,4.60
2022-08-17T09:55:13.436Z,4.63
2022-08-17T09:58:04.989Z,4.87
2022-08-17T10:01:03.314Z,4.30
2022-08-17T10:03:50.848Z,4.50
2022-08-17T10:06:52.238Z,4.83
2022-08-17T10:09:48.589Z,4.27
2022-08-17T10:13:04.058Z,4.30
2022-08-17T10:15:58.496Z,4.43
2022-08-17T10:19:13.767Z,4.13
2022-08-17T10:22:37.966Z,4.10
2022-08-17T10:25:59.765Z,4.43
2022-08-17T10:29:12.478Z,4.10
2022-08-17T10:32:08.491Z,4.50
2022-08-17T10:35:30.598Z,4.50
2022-08-17T10:38:58.880Z,4.50
2022-08-17T10:41:50.735Z,5.23
2022-08-17T10:45:02.016Z,4.47
2022-08-17T10:48:06.337Z,5.30
2022-08-17T10:50:57.632Z,4.93
2022-08-17T10:53:45.898Z,4.90
2022-08-17T10:56:45.478Z,4.97
2022-08-17T10:59:34.926Z,4.47
2022-08-17T11:02:27.379Z,4.57
2022-08-17T11:05:27.508Z,3.90
2022-08-17T11:08:30.950Z,3.83
2022-08-17T11:11:39.026Z,4.53
2022-08-17T11:14:55.711Z,4.27
2022-08-17T11:18:07.878Z,5.10
2022-08-17T11:21:25.206Z,4.77
2022-08-17T11:24:30.534Z,5.03
2022-08-17T11:27:33.975Z,6.00
2022-08-17T11:30:46.913Z,5.07
2022-08-17T11:33:36.924Z,4.90
2022-08-17T11:36:34.878Z,4.83
2022-08-17T11:39:39.361Z,5.17
2022-08-17T11:42:42.288Z,4.57
2022-08-17T11:45:53.702Z,4.80
2022-08-17T11:49:11.109Z,4.70
2022-08-17T11:52:01.117Z,4.90
2022-08-17T11:54:48.647Z,4.90
2022-08-17T11:57:41.060Z,4.70
2022-08-17T12:00:49.796Z,5.03
2022-08-17T12:03:39.111Z,5.30
2022-08-17T12:06:44.464Z,5.90
2022-08-17T12:09:34.392Z,5.07
2022-08-17T12:12:32.774Z,5.00
2022-08-17T12:15:28.548Z,5.10
2022-08-17T12:18:28.218Z,4.83
2022-08-17T12:21:22.218Z,5.10
2022-08-17T12:24:19.844Z,4.60
2022-08-17T12:27:09.615Z,4.17
2022-08-17T12:29:56.326Z,4.43
2022-08-17T12:32:47.522Z,4.37
2022-08-17T12:35:38.758Z,4.10
2022-08-17T12:38:31.829Z,4.80
2022-08-17T12:41:39.430Z,4.63
2022-08-17T12:44:29.829Z,4.97
2022-08-17T12:47:22.231Z,4.33
2022-08-17T12:50:28.955Z,4.57
2022-08-17T12:53:26.196Z,4.70
2022-08-17T12:56:13.453Z,4.77
2022-08-17T12:59:01.794Z,5.10
2022-08-17T13:01:49.492Z,4.90
2022-08-17T13:04:39.838Z,5.07
2022-08-17T13:07:46.593Z,5.03
2022-08-17T13:10:36.319Z,4.80
2022-08-17T13:13:26.503Z,4.73
2022-08-17T13:16:14.152Z,4.65
2022-08-17T13:19:15.283Z,4.72
2022-08-17T13:22:02.284Z,4.40
2022-08-17T13:25:05.291Z,4.50
2022-08-17T13:27:53.839Z,4.72
2022-08-17T13:30:40.636Z,5.20
2022-08-17T13:33:44.836Z,4.63
2022-08-17T13:36:33.356Z,4.10
2022-08-17T13:39:25.228Z,4.40
2022-08-17T13:42:51.583Z,4.20
2022-08-17T13:45:51.770Z,4.35
2022-08-17T13:48:38.674Z,4.68
2022-08-17T13:51:41.471Z,4.25
2022-08-17T13:54:32.098Z,3.85
2022-08-17T13:57:25.467Z,4.82
2022-08-17T14:00:32.659Z,4.20
2022-08-17T14:03:20.730Z,4.60
2022-08-17T14:06:07.470Z,4.18
2022-08-17T14:08:55.720Z,4.55
2022-08-17T14:11:43.367Z,4.38
2022-08-17T14:14:30.063Z,4.38
2022-08-17T14:17:17.263Z,4.78
2022-08-17T14:20:05.368Z,4.28
2022-08-17T14:22:55.630Z,3.95
2022-08-17T14:25:41.839Z,4.93
2022-08-17T14:28:28.185Z,3.72
2022-08-17T14:31:14.387Z,4.03
2022-08-17T14:34:00.896Z,4.20
2022-08-17T14:36:48.239Z,4.50
2022-08-17T14:39:34.997Z,4.53
2022-08-17T14:42:26.761Z,4.35
2022-08-17T14:45:31.856Z,4.25
2022-08-17T14:48:20.591Z,4.30
2022-08-17T14:51:07.616Z,4.35
2022-08-17T14:53:54.487Z,4.20
2022-08-17T14:56:40.840Z,4.13
2022-08-17T14:59:35.605Z,4.82
2022-08-17T15:02:29.335Z,4.40
2022-08-17T15:05:17.344Z,4.15
2022-08-17T15:08:05.697Z,4.45
2022-08-17T15:10:54.373Z,4.45
2022-08-17T15:13:53.060Z,4.22
2022-08-17T15:16:40.302Z,4.22
2022-08-17T15:19:26.674Z,3.63
2022-08-17T15:22:22.636Z,3.90
2022-08-17T15:25:10.871Z,4.20
2022-08-17T15:27:57.514Z,4.45
2022-08-17T15:30:45.004Z,4.22
2022-08-17T15:33:31.684Z,4.45
2022-08-17T15:36:19.003Z,3.88
2022-08-17T15:39:05.326Z,3.75
2022-08-17T15:41:58.729Z,4.10
2022-08-17T15:44:47.260Z,4.15
2022-08-17T15:47:33.439Z,3.78
2022-08-17T15:50:19.658Z,3.65
2022-08-17T15:53:05.959Z,4.00
2022-08-17T15:55:52.196Z,4.15
2022-08-17T15:58:40.032Z,3.78
2022-08-17T16:02:24.763Z,4.00
2022-08-17T16:04:34.235Z,3.97
2022-08-17T16:07:26.487Z,4.05
2022-08-17T16:10:18.629Z,4.57
2022-08-17T16:13:05.822Z,4.22
2022-08-17T16:16:04.162Z,4.05
2022-08-17T16:18:54.552Z,4.40
2022-08-17T16:21:43.435Z,4.20
2022-08-17T16:24:30.575Z,4.05
2022-08-17T16:27:17.303Z,4.55
2022-08-17T16:30:10.496Z,4.68
2022-08-17T16:33:01.630Z,5.95
2022-08-17T16:35:47.970Z,4.53
2022-08-17T16:38:35.683Z,4.88
2022-08-17T16:41:44.978Z,4.43
2022-08-17T16:44:32.105Z,4.35
2022-08-17T16:47:19.460Z,4.68
2022-08-17T16:50:07.121Z,4.13
2022-08-17T16:53:06.921Z,4.30
2022-08-17T16:55:53.316Z,4.90
2022-08-17T16:58:40.866Z,4.25
2022-08-17T17:01:30.220Z,4.88
2022-08-17T17:04:18.859Z,5.13
2022-08-17T17:07:38.000Z,5.38
2022-08-17T17:10:38.766Z,4.57
2022-08-17T17:13:40.439Z,4.78
2022-08-17T17:17:05.074Z,4.72
2022-08-17T17:19:59.625Z,5.32
2022-08-17T17:22:50.371Z,4.40
2022-08-17T17:25:52.501Z,4.97
2022-08-17T17:29:01.814Z,4.70
2022-08-17T17:32:23.649Z,5.15
2022-08-17T17:35:24.113Z,4.70
2022-08-17T17:38:45.251Z,4.60
2022-08-17T17:41:47.241Z,4.87
2022-08-17T17:44:40.860Z,5.03
2022-08-17T17:47:28.842Z,5.20
2022-08-17T17:50:18.749Z,5.10
2022-08-17T17:53:19.883Z,5.00
2022-08-17T17:56:42.869Z,5.10
2022-08-17T17:59:44.866Z,5.10
2022-08-17T18:02:52.124Z,5.63
2022-08-17T18:06:17.452Z,4.57
2022-08-17T18:09:33.903Z,5.17
2022-08-17T18:13:05.329Z,5.03
2022-08-17T18:15:53.911Z,4.87
2022-08-17T18:18:46.830Z,5.33
2022-08-17T18:21:39.037Z,5.10
2022-08-17T18:24:40.513Z,5.33
2022-08-17T18:27:34.516Z,5.07
2022-08-17T18:30:20.732Z,4.93
2022-08-17T18:33:28.946Z,5.70
2022-08-17T18:36:33.804Z,4.83
2022-08-17T18:39:28.376Z,4.77
2022-08-17T18:42:30.074Z,6.30
2022-08-17T18:45:42.506Z,5.80
2022-08-17T18:48:52.676Z,5.73
2022-08-17T18:51:43.314Z,6.50
2022-08-17T18:54:29.979Z,5.10
2022-08-17T18:57:31.411Z,5.40
2022-08-17T19:00:41.391Z,6.03
2022-08-17T19:03:28.473Z,4.60
2022-08-17T19:06:35.068Z,5.23
2022-08-17T19:09:32.583Z,4.63
2022-08-17T19:12:28.769Z,5.00
2022-08-17T19:15:22.954Z,5.33
2022-08-17T19:18:16.290Z,5.23
2022-08-17T19:21:10.614Z,5.27
2022-08-17T19:24:13.764Z,4.90
2022-08-17T19:27:24.873Z,5.10
2022-08-17T19:30:21.225Z,4.83
2022-08-17T19:33:07.547Z,5.67
2022-08-17T19:36:21.420Z,5.83
2022-08-17T19:39:13.726Z,6.33
2022-08-17T19:42:09.062Z,6.10
2022-08-17T19:44:55.547Z,5.20
2022-08-17T19:48:14.812Z,6.00
2022-08-17T19:51:15.638Z,6.23
2022-08-17T19:54:07.256Z,5.73
2022-08-17T19:57:05.128Z,6.03
2022-08-17T20:00:13.623Z,5.90
2022-08-17T20:03:06.613Z,5.37
2022-08-17T20:06:13.812Z,6.00
2022-08-17T20:09:14.967Z,4.77
2022-08-17T20:12:09.001Z,5.33
2022-08-17T20:15:10.863Z,5.60
2022-08-17T20:17:59.743Z,5.03
2022-08-17T20:20:57.151Z,5.80
2022-08-17T20:23:56.062Z,6.03
2022-08-17T20:26:58.017Z,5.80
2022-08-17T20:30:00.519Z,6.17
2022-08-17T20:32:52.610Z,5.47
2022-08-17T20:35:40.062Z,5.37
2022-08-17T20:38:45.971Z,5.73
2022-08-17T20:42:16.075Z,5.97
2022-08-17T20:45:25.868Z,5.67
2022-08-17T20:48:36.301Z,5.53
2022-08-17T20:51:22.610Z,6.00
2022-08-17T20:54:18.134Z,6.20
2022-08-17T20:57:09.205Z,6.03
2022-08-17T21:00:14.335Z,5.70
2022-08-17T21:03:22.546Z,5.33
2022-08-17T21:06:17.210Z,5.53
2022-08-17T21:09:13.308Z,5.53
2022-08-17T21:12:04.850Z,6.20
2022-08-17T21:15:06.960Z,5.77
2022-08-17T21:18:09.166Z,6.00
2022-08-17T21:21:16.865Z,5.97
2022-08-17T21:24:33.354Z,6.00
2022-08-17T21:27:42.931Z,7.00
2022-08-17T21:30:29.133Z,5.97
2022-08-17T21:33:25.112Z,5.60
2022-08-17T21:36:17.308Z,6.10
2022-08-17T21:39:10.325Z,6.60
2022-08-17T21:41:58.245Z,5.90
2022-08-17T21:44:50.907Z,6.57
2022-08-17T21:47:43.285Z,5.60
2022-08-17T21:50:30.066Z,5.63
2022-08-17T21:53:28.082Z,6.30
2022-08-17T21:56:24.710Z,6.33
2022-08-17T21:59:27.230Z,6.30
2022-08-17T22:02:20.804Z,6.20
2022-08-17T22:05:11.281Z,6.53
2022-08-17T22:08:03.585Z,6.23
2022-08-17T22:10:59.110Z,6.07
2022-08-17T22:13:45.758Z,6.10
2022-08-17T22:16:32.508Z,6.00
2022-08-17T22:19:20.189Z,5.93
2022-08-17T22:22:21.941Z,6.13
2022-08-17T22:25:19.433Z,6.80
2022-08-17T22:28:11.605Z,5.97
2022-08-17T22:31:06.658Z,6.13
2022-08-17T22:34:12.926Z,6.13
2022-08-17T22:37:27.262Z,5.87
2022-08-17T22:40:30.331Z,6.10
2022-08-17T22:43:26.093Z,6.07
2022-08-17T22:46:14.488Z,5.20
2022-08-17T22:49:00.913Z,4.03
2022-08-17T22:51:47.200Z,4.33
2022-08-17T22:54:52.682Z,3.80
2022-08-17T22:58:04.652Z,3.70
2022-08-17T23:00:51.523Z,4.43
2022-08-17T23:21:40.258Z,3.47
2022-08-17T23:24:33.069Z,4.20
2022-08-17T23:27:20.823Z,4.10
2022-08-17T23:30:10.525Z,4.57
2022-08-17T23:33:06.497Z,4.13
2022-08-17T23:35:53.911Z,3.87
2022-08-17T23:38:43.467Z,3.93
2022-08-17T23:41:35.174Z,3.90
2022-08-17T23:44:23.549Z,3.40
2022-08-17T23:47:11.074Z,4.20
2022-08-17T23:49:57.293Z,4.43
2022-08-17T23:52:47.935Z,4.27
2022-08-17T23:55:34.823Z,3.63
2022-08-17T23:58:21.493Z,4.53
